Time;durP1;ratioP1;P1;durP2;ratioP2;P2;SDS_P1;SDS_P2;PMS_P1;PMS_P2;Temp;Humidity;BMP_temperature;BMP_pressure;BME280_temperature;BME280_humidity;BME280_pressure;Samples;Min_cycle;Max_cycle;Signal;HPM_P1;HPM_P2
2023/09/29 00:01:35;;;;;;;5.88;3.42;;;;;;;;;;5104605;28;20031;-60
2023/09/29 00:04:04;;;;;;;4.95;3.35;;;;;;;;;;5105144;28;20044;-60
2023/09/29 00:06:32;;;;;;;4.72;3.58;;;;;;;;;;5105936;28;20039;-59
2023/09/29 00:08:59;;;;;;;7.03;4.35;;;;;;;;;;5103413;28;20503;-59
2023/09/29 00:11:26;;;;;;;6.38;3.60;;;;;;;;;;5105231;28;20487;-59
2023/09/29 00:13:52;;;;;;;5.57;3.47;;;;;;;;;;5087002;28;20394;-60
2023/09/29 00:16:18;;;;;;;6.40;3.88;;;;;;;;;;5105665;28;20038;-60
2023/09/29 00:18:44;;;;;;;8.90;3.60;;;;;;;;;;5085114;28;20058;-61
2023/09/29 00:21:11;;;;;;;6.88;3.47;;;;;;;;;;5105223;28;20060;-60
2023/09/29 00:23:37;;;;;;;4.95;3.50;;;;;;;;;;5104931;28;20039;-59
2023/09/29 00:26:03;;;;;;;4.93;3.25;;;;;;;;;;5105186;28;20063;-60
2023/09/29 00:28:29;;;;;;;4.43;3.33;;;;;;;;;;5106115;28;20043;-60
2023/09/29 00:30:56;;;;;;;5.32;3.60;;;;;;;;;;5085772;28;20035;-60
2023/09/29 00:33:22;;;;;;;5.55;3.33;;;;;;;;;;5105863;28;20038;-59
2023/09/29 00:35:48;;;;;;;6.03;3.55;;;;;;;;;;5089353;28;20048;-59
2023/09/29 00:38:14;;;;;;;5.93;3.65;;;;;;;;;;5109334;28;20044;-60
2023/09/29 00:40:40;;;;;;;5.53;3.45;;;;;;;;;;5085118;28;20059;-60
2023/09/29 00:43:08;;;;;;;4.50;3.53;;;;;;;;;;5091002;28;20031;-60
2023/09/29 00:45:35;;;;;;;6.45;3.60;;;;;;;;;;5071594;28;20067;-60
2023/09/29 00:48:10;;;;;;;4.57;3.42;;;;;;;;;;5109120;28;20048;-60
2023/09/29 00:50:39;;;;;;;5.30;3.60;;;;;;;;;;5107984;28;20050;-60
2023/09/29 00:53:11;;;;;;;;;;;;;;;;;;5096695;28;20048;-60
2023/09/29 00:55:41;;;;;;;4.93;3.40;;;;;;;;;;5092230;28;19912;-60
2023/09/29 00:58:08;;;;;;;6.45;3.67;;;;;;;;;;5110333;28;20039;-60
2023/09/29 01:00:40;;;;;;;6.82;3.75;;;;;;;;;;5092237;28;20039;-60
2023/09/29 01:03:11;;;;;;;5.13;3.47;;;;;;;;;;5110373;28;20407;-60
2023/09/29 01:05:41;;;;;;;6.95;3.60;;;;;;;;;;5093545;28;20047;-59
2023/09/29 01:08:09;;;;;;;6.47;3.92;;;;;;;;;;5086391;28;20040;-60
2023/09/29 01:10:36;;;;;;;5.35;3.95;;;;;;;;;;5088486;28;20039;-59
2023/09/29 01:13:03;;;;;;;6.97;3.70;;;;;;;;;;5109374;28;20036;-60
2023/09/29 01:15:31;;;;;;;5.85;3.65;;;;;;;;;;5107686;28;20031;-60
2023/09/29 01:17:58;;;;;;;5.45;3.63;;;;;;;;;;5107200;28;20434;-59
2023/09/29 01:20:27;;;;;;;6.30;3.47;;;;;;;;;;5091456;28;20047;-60
2023/09/29 01:22:53;;;;;;;6.47;3.80;;;;;;;;;;5104819;28;20447;-60
2023/09/29 01:25:20;;;;;;;7.60;3.60;;;;;;;;;;5108809;28;20036;-60
2023/09/29 01:27:47;;;;;;;4.47;3.28;;;;;;;;;;5107269;28;20043;-60
2023/09/29 01:30:19;;;;;;;4.60;3.25;;;;;;;;;;5107616;28;20419;-60
2023/09/29 01:32:47;;;;;;;6.00;3.47;;;;;;;;;;5104693;28;20564;-60
2023/09/29 01:35:21;;;;;;;4.90;3.15;;;;;;;;;;5102923;28;20046;-59
2023/09/29 01:37:49;;;;;;;5.65;3.70;;;;;;;;;;5107726;28;20050;-59
2023/09/29 01:40:20;;;;;;;6.82;3.40;;;;;;;;;;5085214;28;20058;-59
2023/09/29 01:42:47;;;;;;;6.15;3.70;;;;;;;;;;5108025;28;20046;-59
2023/09/29 01:45:14;;;;;;;7.13;3.33;;;;;;;;;;5104791;28;20043;-59
2023/09/29 01:47:43;;;;;;;5.43;3.65;;;;;;;;;;5107802;28;20030;-59
2023/09/29 01:50:14;;;;;;;8.05;4.07;;;;;;;;;;5098500;28;20027;-59
2023/09/29 01:52:41;;;;;;;6.30;3.78;;;;;;;;;;5108190;28;20051;-59
2023/09/29 01:55:19;;;;;;;5.57;3.80;;;;;;;;;;5107684;28;20042;-60
2023/09/29 01:57:47;;;;;;;5.82;3.90;;;;;;;;;;5093918;28;20036;-60
2023/09/29 02:00:24;;;;;;;5.00;3.50;;;;;;;;;;5090604;28;20040;-60
2023/09/29 02:02:55;;;;;;;9.00;3.92;;;;;;;;;;5107172;28;20043;-59
2023/09/29 02:05:21;;;;;;;5.10;3.60;;;;;;;;;;5106956;28;20035;-59
2023/09/29 02:07:49;;;;;;;7.25;3.90;;;;;;;;;;5089386;28;20039;-59
2023/09/29 02:10:19;;;;;;;6.80;4.05;;;;;;;;;;5106975;28;20047;-59
2023/09/29 02:12:54;;;;;;;7.30;3.70;;;;;;;;;;5105201;28;20579;-60
2023/09/29 02:15:21;;;;;;;7.90;4.43;;;;;;;;;;5075422;28;20027;-59
2023/09/29 02:17:48;;;;;;;7.72;4.28;;;;;;;;;;5095148;28;20042;-59
2023/09/29 02:20:18;;;;;;;6.97;4.32;;;;;;;;;;5087759;28;20035;-59
2023/09/29 02:22:45;;;;;;;6.22;3.88;;;;;;;;;;5107331;28;20357;-59
2023/09/29 02:25:15;;;;;;;6.10;3.88;;;;;;;;;;5074978;28;20035;-58
2023/09/29 02:27:42;;;;;;;5.68;3.90;;;;;;;;;;5083520;28;20039;-60
2023/09/29 02:30:10;;;;;;;9.85;4.57;;;;;;;;;;5089558;28;20039;-60
2023/09/29 02:32:37;;;;;;;7.35;4.25;;;;;;;;;;5084917;28;20046;-60
2023/09/29 02:35:05;;;;;;;7.00;3.97;;;;;;;;;;5087523;28;20062;-60
2023/09/29 02:37:33;;;;;;;6.28;4.07;;;;;;;;;;5088649;28;20035;-59
2023/09/29 02:39:59;;;;;;;8.02;4.55;;;;;;;;;;5087450;28;20035;-57
2023/09/29 02:42:26;;;;;;;6.25;3.95;;;;;;;;;;5105853;28;20032;-60
2023/09/29 02:44:52;;;;;;;7.85;4.30;;;;;;;;;;5089150;28;20039;-59
2023/09/29 02:47:18;;;;;;;5.35;4.00;;;;;;;;;;5107267;28;20043;-59
2023/09/29 02:49:45;;;;;;;6.55;4.00;;;;;;;;;;5106782;28;20027;-60
2023/09/29 02:52:11;;;;;;;7.95;4.15;;;;;;;;;;5089857;28;20544;-59
2023/09/29 02:54:39;;;;;;;9.15;4.25;;;;;;;;;;5107128;28;20031;-59
2023/09/29 02:57:05;;;;;;;8.05;4.30;;;;;;;;;;5107614;28;20082;-59
2023/09/29 02:59:33;;;;;;;7.38;4.20;;;;;;;;;;5107727;28;20044;-60
2023/09/29 03:02:01;;;;;;;7.47;4.63;;;;;;;;;;5107040;28;20032;-59
2023/09/29 03:04:27;;;;;;;6.70;4.47;;;;;;;;;;5106595;28;20035;-59
2023/09/29 03:06:53;;;;;;;7.32;4.38;;;;;;;;;;5106388;28;20023;-60
2023/09/29 03:09:19;;;;;;;6.35;4.10;;;;;;;;;;5106213;28;20048;-59
2023/09/29 03:11:45;;;;;;;8.85;4.63;;;;;;;;;;5083710;28;20046;-60
2023/09/29 03:14:15;;;;;;;6.97;4.50;;;;;;;;;;5106105;28;20384;-58
2023/09/29 03:16:42;;;;;;;12.10;4.63;;;;;;;;;;5105034;28;20051;-59
2023/09/29 03:19:08;;;;;;;9.23;4.20;;;;;;;;;;5106663;28;20046;-59
2023/09/29 03:21:34;;;;;;;7.88;4.35;;;;;;;;;;5106489;28;20031;-59
2023/09/29 03:24:02;;;;;;;7.35;4.40;;;;;;;;;;5086178;28;20060;-58
2023/09/29 03:26:31;;;;;;;8.05;3.88;;;;;;;;;;5074482;28;20040;-59
2023/09/29 03:28:57;;;;;;;6.60;4.10;;;;;;;;;;5086332;28;20047;-58
2023/09/29 03:31:24;;;;;;;8.35;4.45;;;;;;;;;;5104218;28;20418;-60
2023/09/29 03:33:52;;;;;;;8.10;4.70;;;;;;;;;;5103266;28;20430;-61
2023/09/29 03:36:21;;;;;;;7.93;4.40;;;;;;;;;;5107216;28;20105;-59
2023/09/29 03:38:47;;;;;;;9.23;4.80;;;;;;;;;;5104675;28;20043;-60
2023/09/29 03:41:13;;;;;;;8.52;4.60;;;;;;;;;;5105416;28;20036;-60
2023/09/29 03:43:40;;;;;;;8.82;4.90;;;;;;;;;;5102713;28;20415;-61
2023/09/29 03:46:17;;;;;;;11.10;5.38;;;;;;;;;;5106520;28;20044;-60
2023/09/29 03:48:46;;;;;;;7.97;4.82;;;;;;;;;;5103595;28;20043;-60
2023/09/29 03:51:23;;;;;;;8.15;5.43;;;;;;;;;;5106408;28;20028;-61
2023/09/29 03:53:50;;;;;;;13.45;5.65;;;;;;;;;;5104760;28;20044;-60
2023/09/29 03:56:16;;;;;;;9.90;5.68;;;;;;;;;;5106490;28;20054;-60
2023/09/29 03:58:44;;;;;;;9.25;4.88;;;;;;;;;;5086778;28;20040;-60
2023/09/29 04:01:10;;;;;;;11.43;6.28;;;;;;;;;;5102498;28;20427;-60
2023/09/29 04:03:36;;;;;;;9.32;5.00;;;;;;;;;;5086669;28;20048;-59
2023/09/29 04:06:03;;;;;;;8.45;5.38;;;;;;;;;;5107811;28;20039;-59
2023/09/29 04:08:29;;;;;;;12.38;6.47;;;;;;;;;;5105548;28;20518;-59
2023/09/29 04:10:55;;;;;;;12.70;6.95;;;;;;;;;;5106120;28;20047;-61
2023/09/29 04:13:21;;;;;;;15.60;6.95;;;;;;;;;;5109504;28;20038;-61
2023/09/29 04:15:48;;;;;;;10.50;5.90;;;;;;;;;;5109405;28;20039;-60
2023/09/29 04:18:14;;;;;;;11.07;5.82;;;;;;;;;;5093209;28;20055;-59
2023/09/29 04:20:41;;;;;;;12.75;6.07;;;;;;;;;;5109530;28;20039;-59
2023/09/29 04:23:07;;;;;;;13.75;7.30;;;;;;;;;;5107199;28;20046;-59
2023/09/29 04:25:33;;;;;;;16.00;8.60;;;;;;;;;;5094071;28;20039;-60
2023/09/29 04:28:00;;;;;;;13.00;7.15;;;;;;;;;;5110198;28;20042;-59
2023/09/29 04:30:26;;;;;;;13.80;7.07;;;;;;;;;;5107738;28;20036;-60
2023/09/29 04:32:55;;;;;;;14.82;7.68;;;;;;;;;;5108987;28;20087;-59
2023/09/29 04:35:21;;;;;;;12.20;6.85;;;;;;;;;;5106593;28;20034;-60
2023/09/29 04:37:49;;;;;;;12.73;6.43;;;;;;;;;;5109345;28;20629;-59
2023/09/29 04:40:16;;;;;;;12.45;6.90;;;;;;;;;;5107970;28;20070;-60
2023/09/29 04:42:42;;;;;;;12.25;7.30;;;;;;;;;;5108267;28;20032;-60
2023/09/29 04:45:08;;;;;;;11.23;6.75;;;;;;;;;;5108129;28;20054;-60
2023/09/29 04:47:34;;;;;;;11.27;6.55;;;;;;;;;;5109113;28;20043;-60
2023/09/29 04:50:01;;;;;;;10.98;6.05;;;;;;;;;;5109769;28;20493;-59
2023/09/29 04:52:27;;;;;;;10.43;5.97;;;;;;;;;;5109588;28;20054;-59
2023/09/29 04:54:53;;;;;;;12.30;6.35;;;;;;;;;;5109287;28;20450;-60
2023/09/29 04:57:19;;;;;;;14.85;6.45;;;;;;;;;;5110361;28;20055;-59
2023/09/29 04:59:45;;;;;;;12.82;6.88;;;;;;;;;;5108649;28;20047;-60
2023/09/29 05:02:12;;;;;;;12.68;6.53;;;;;;;;;;5086742;28;20051;-59
2023/09/29 05:04:39;;;;;;;14.25;6.90;;;;;;;;;;5089717;28;20402;-59
2023/09/29 05:07:05;;;;;;;13.90;7.88;;;;;;;;;;5090889;28;20047;-61
2023/09/29 05:09:31;;;;;;;13.25;6.80;;;;;;;;;;5090478;28;20039;-60
2023/09/29 05:11:57;;;;;;;11.15;6.00;;;;;;;;;;5107304;28;20043;-58
2023/09/29 05:14:24;;;;;;;14.02;6.35;;;;;;;;;;5108087;27;20043;-61
2023/09/29 05:16:50;;;;;;;13.18;7.15;;;;;;;;;;5108624;27;20044;-61
2023/09/29 05:19:16;;;;;;;15.70;7.28;;;;;;;;;;5108322;28;20043;-62
2023/09/29 05:21:42;;;;;;;14.05;6.97;;;;;;;;;;5105186;28;20043;-61
2023/09/29 05:24:09;;;;;;;16.83;8.27;;;;;;;;;;5108083;27;20051;-61
2023/09/29 05:26:35;;;;;;;12.52;6.93;;;;;;;;;;5108459;28;20023;-60
2023/09/29 05:29:01;;;;;;;14.93;7.53;;;;;;;;;;5104529;28;20040;-61
2023/09/29 05:31:27;;;;;;;15.68;7.72;;;;;;;;;;5106067;28;20024;-60
2023/09/29 05:33:54;;;;;;;14.57;6.90;;;;;;;;;;5085412;28;20055;-60
2023/09/29 05:36:21;;;;;;;13.20;7.68;;;;;;;;;;5108147;28;20285;-60
2023/09/29 05:38:47;;;;;;;12.55;7.22;;;;;;;;;;5108710;28;20031;-61
2023/09/29 05:41:14;;;;;;;11.98;7.65;;;;;;;;;;5105122;28;20411;-61
2023/09/29 05:43:40;;;;;;;16.30;7.80;;;;;;;;;;5105645;28;20046;-61
2023/09/29 05:46:06;;;;;;;18.55;8.40;;;;;;;;;;5105834;28;20038;-60
2023/09/29 05:48:32;;;;;;;17.13;8.02;;;;;;;;;;5105952;28;20040;-61
2023/09/29 05:51:00;;;;;;;23.63;9.15;;;;;;;;;;5096075;28;20495;-60
2023/09/29 05:53:26;;;;;;;15.15;8.27;;;;;;;;;;5108184;28;20027;-60
2023/09/29 05:55:52;;;;;;;14.68;7.75;;;;;;;;;;5086220;28;20036;-60
2023/09/29 05:58:20;;;;;;;14.10;7.90;;;;;;;;;;5071973;28;20100;-60
2023/09/29 06:00:46;;;;;;;19.98;8.30;;;;;;;;;;5107258;28;20395;-60
2023/09/29 06:03:12;;;;;;;19.70;7.88;;;;;;;;;;5106690;28;20051;-60
2023/09/29 06:05:38;;;;;;;21.20;8.80;;;;;;;;;;5107275;28;20047;-60
2023/09/29 06:08:06;;;;;;;17.77;9.23;;;;;;;;;;5108465;28;20027;-60
2023/09/29 06:10:32;;;;;;;16.88;9.32;;;;;;;;;;5109727;28;20402;-60
2023/09/29 06:12:59;;;;;;;18.45;8.82;;;;;;;;;;5108273;28;20052;-60
2023/09/29 06:15:25;;;;;;;20.65;10.20;;;;;;;;;;5107094;28;20043;-60
2023/09/29 06:17:51;;;;;;;21.00;10.70;;;;;;;;;;5086962;28;20046;-60
2023/09/29 06:20:18;;;;;;;23.15;10.85;;;;;;;;;;5108200;28;20109;-61
2023/09/29 06:22:45;;;;;;;19.92;9.95;;;;;;;;;;5102223;28;20048;-61
2023/09/29 06:25:12;;;;;;;17.58;8.98;;;;;;;;;;5104261;28;20039;-59
2023/09/29 06:27:38;;;;;;;17.20;8.75;;;;;;;;;;5107485;28;20039;-59
2023/09/29 06:30:05;;;;;;;18.48;8.23;;;;;;;;;;5105707;28;20161;-60
2023/09/29 06:32:31;;;;;;;23.30;9.27;;;;;;;;;;5104647;28;20054;-61
2023/09/29 06:34:57;;;;;;;17.05;8.95;;;;;;;;;;5104935;28;20040;-60
2023/09/29 06:37:23;;;;;;;18.98;8.40;;;;;;;;;;5106498;28;20438;-60
2023/09/29 06:39:50;;;;;;;33.03;15.82;;;;;;;;;;5106953;28;20039;-61
2023/09/29 06:42:16;;;;;;;31.83;14.68;;;;;;;;;;5105542;28;20043;-60
2023/09/29 06:44:42;;;;;;;25.45;11.68;;;;;;;;;;5102793;28;20035;-61
2023/09/29 06:47:08;;;;;;;17.70;9.10;;;;;;;;;;5081076;28;20036;-60
2023/09/29 06:49:35;;;;;;;19.98;8.95;;;;;;;;;;5109246;28;20046;-60
2023/09/29 06:52:01;;;;;;;20.00;9.95;;;;;;;;;;5100855;28;20040;-59
2023/09/29 06:54:27;;;;;;;18.13;9.43;;;;;;;;;;5106867;28;20540;-61
2023/09/29 06:56:54;;;;;;;18.10;8.93;;;;;;;;;;5107194;28;20043;-60
2023/09/29 06:59:20;;;;;;;16.77;9.05;;;;;;;;;;5107229;28;20031;-62
2023/09/29 07:01:46;;;;;;;30.52;13.50;;;;;;;;;;5103246;28;20079;-60
2023/09/29 07:04:13;;;;;;;17.83;9.18;;;;;;;;;;5105070;28;20047;-60
2023/09/29 07:06:40;;;;;;;20.20;10.48;;;;;;;;;;5107343;28;20536;-60
2023/09/29 07:09:07;;;;;;;21.17;9.73;;;;;;;;;;5108200;28;20055;-60
2023/09/29 07:11:34;;;;;;;17.25;9.27;;;;;;;;;;5105081;28;20047;-60
2023/09/29 07:14:00;;;;;;;16.70;8.38;;;;;;;;;;5103744;28;20039;-59
2023/09/29 07:16:27;;;;;;;15.73;8.18;;;;;;;;;;5104807;28;20043;-58
2023/09/29 07:18:53;;;;;;;21.40;8.50;;;;;;;;;;5103867;28;20032;-57
2023/09/29 07:21:19;;;;;;;21.00;8.20;;;;;;;;;;5107636;28;20402;-58
2023/09/29 07:23:46;;;;;;;16.33;7.95;;;;;;;;;;5084117;28;20040;-58
2023/09/29 07:26:12;;;;;;;19.40;8.43;;;;;;;;;;5106223;28;20434;-58
2023/09/29 07:28:39;;;;;;;18.08;7.88;;;;;;;;;;5105679;28;20047;-57
2023/09/29 07:31:05;;;;;;;16.00;7.82;;;;;;;;;;5105517;28;20047;-58
2023/09/29 07:33:31;;;;;;;17.00;9.05;;;;;;;;;;5085020;28;20059;-57
2023/09/29 07:35:57;;;;;;;21.35;8.38;;;;;;;;;;5104174;28;20059;-58
2023/09/29 07:38:23;;;;;;;22.63;10.77;;;;;;;;;;5106651;28;20491;-57
2023/09/29 07:40:49;;;;;;;17.80;9.02;;;;;;;;;;5103707;28;20051;-58
2023/09/29 07:43:16;;;;;;;23.30;8.88;;;;;;;;;;5101333;28;20055;-59
2023/09/29 07:45:43;;;;;;;22.58;10.18;;;;;;;;;;5107337;28;20039;-59
2023/09/29 07:48:09;;;;;;;22.27;9.30;;;;;;;;;;5110241;28;20058;-60
2023/09/29 07:50:35;;;;;;;21.63;9.75;;;;;;;;;;5113549;28;20494;-61
2023/09/29 07:53:01;;;;;;;22.52;10.07;;;;;;;;;;5111883;28;20050;-60
2023/09/29 07:55:27;;;;;;;23.40;9.63;;;;;;;;;;5110843;28;20050;-59
2023/09/29 07:57:54;;;;;;;23.30;9.68;;;;;;;;;;5112422;28;20027;-60
2023/09/29 08:00:20;;;;;;;21.90;9.50;;;;;;;;;;5112661;28;20032;-60
2023/09/29 08:02:46;;;;;;;18.60;8.48;;;;;;;;;;5111437;27;20054;-59
2023/09/29 08:05:12;;;;;;;21.55;9.75;;;;;;;;;;5111831;28;20518;-60
2023/09/29 08:07:39;;;;;;;22.77;9.52;;;;;;;;;;5112825;28;20042;-59
2023/09/29 08:10:07;;;;;;;22.85;8.90;;;;;;;;;;5113475;28;20436;-59
2023/09/29 08:12:34;;;;;;;21.58;9.73;;;;;;;;;;5077449;28;20036;-59
2023/09/29 08:15:05;;;;;;;23.77;9.55;;;;;;;;;;5108086;28;20036;-60
2023/09/29 08:17:32;;;;;;;17.95;9.20;;;;;;;;;;5112652;28;20411;-59
2023/09/29 08:19:58;;;;;;;19.67;8.68;;;;;;;;;;5112120;28;20050;-59
2023/09/29 08:22:25;;;;;;;18.85;8.90;;;;;;;;;;5093826;28;20426;-59
2023/09/29 08:24:51;;;;;;;16.33;8.73;;;;;;;;;;5092580;28;20387;-59
2023/09/29 08:27:17;;;;;;;20.40;9.50;;;;;;;;;;5112651;28;20043;-60
2023/09/29 08:29:44;;;;;;;19.45;9.68;;;;;;;;;;5094444;28;20032;-60
2023/09/29 08:32:11;;;;;;;24.17;10.07;;;;;;;;;;5093097;28;20039;-60
2023/09/29 08:34:39;;;;;;;19.63;9.45;;;;;;;;;;5109610;28;20043;-60
2023/09/29 08:37:05;;;;;;;27.55;8.68;;;;;;;;;;5094585;28;20047;-60
2023/09/29 08:39:31;;;;;;;19.88;8.70;;;;;;;;;;5112394;28;20032;-60
2023/09/29 08:42:05;;;;;;;19.92;9.20;;;;;;;;;;5111800;27;20051;-60
2023/09/29 08:44:33;;;;;;;20.77;9.15;;;;;;;;;;5091910;28;20502;-60
2023/09/29 08:47:04;;;;;;;16.95;8.73;;;;;;;;;;5113129;28;20048;-57
2023/09/29 08:49:30;;;;;;;17.95;8.15;;;;;;;;;;5112835;27;20047;-58
2023/09/29 08:51:58;;;;;;;22.77;9.45;;;;;;;;;;5108894;28;20483;-57
2023/09/29 08:54:27;;;;;;;23.63;9.55;;;;;;;;;;5088004;28;20036;-58
2023/09/29 08:56:54;;;;;;;23.55;9.15;;;;;;;;;;5109313;28;20034;-57
2023/09/29 08:59:21;;;;;;;20.05;9.25;;;;;;;;;;5106810;28;20035;-58
2023/09/29 09:01:49;;;;;;;24.67;10.32;;;;;;;;;;5081439;28;20058;-58
2023/09/29 09:04:15;;;;;;;21.88;9.23;;;;;;;;;;5107421;28;20040;-57
2023/09/29 09:06:41;;;;;;;17.85;9.25;;;;;;;;;;5106530;28;20047;-58
2023/09/29 09:09:09;;;;;;;17.80;8.90;;;;;;;;;;5107190;28;20043;-58
2023/09/29 09:11:42;;;;;;;17.95;8.93;;;;;;;;;;5108367;28;20027;-58
2023/09/29 09:14:10;;;;;;;23.55;8.70;;;;;;;;;;5106853;28;20024;-58
2023/09/29 09:16:38;;;;;;;19.02;9.40;;;;;;;;;;5108348;28;20070;-58
2023/09/29 09:19:12;;;;;;;19.50;9.18;;;;;;;;;;5108432;28;20031;-59
2023/09/29 09:21:41;;;;;;;16.92;9.60;;;;;;;;;;5085122;28;20051;-58
2023/09/29 09:24:21;;;;;;;18.23;9.18;;;;;;;;;;5104976;28;20052;-58
2023/09/29 09:26:48;;;;;;;20.17;9.38;;;;;;;;;;5105514;27;20414;-58
2023/09/29 09:29:16;;;;;;;28.70;13.05;;;;;;;;;;5107057;28;20490;-57
2023/09/29 09:31:47;;;;;;;23.10;11.50;;;;;;;;;;5105778;28;20074;-57
2023/09/29 09:34:13;;;;;;;18.02;8.60;;;;;;;;;;5107642;28;20802;-58
2023/09/29 09:36:52;;;;;;;19.13;8.65;;;;;;;;;;5107450;28;20418;-58
2023/09/29 09:39:22;;;;;;;18.48;8.20;;;;;;;;;;5105507;28;20395;-58
2023/09/29 09:41:53;;;;;;;15.70;8.60;;;;;;;;;;5102979;28;20055;-58
2023/09/29 09:44:23;;;;;;;15.38;8.43;;;;;;;;;;5107163;28;20431;-56
2023/09/29 09:47:00;;;;;;;16.92;7.45;;;;;;;;;;5108039;28;20048;-58
2023/09/29 09:49:44;;;;;;;14.32;6.97;;;;;;;;;;5109067;28;20039;-57
2023/09/29 09:52:15;;;;;;;10.98;6.38;;;;;;;;;;5090133;28;20044;-58
2023/09/29 09:54:48;;;;;;;9.77;5.55;;;;;;;;;;5104086;28;20050;-59
2023/09/29 09:57:20;;;;;;;10.20;5.85;;;;;;;;;;5106870;28;20454;-58
2023/09/29 09:59:47;;;;;;;15.07;5.82;;;;;;;;;;5105665;28;20039;-59
2023/09/29 10:02:13;;;;;;;9.85;5.20;;;;;;;;;;5109299;28;20032;-58
2023/09/29 10:04:43;;;;;;;12.98;5.60;;;;;;;;;;5088779;28;20027;-60
2023/09/29 10:07:10;;;;;;;14.60;5.35;;;;;;;;;;5105452;28;20040;-59
2023/09/29 10:09:48;;;;;;;9.45;5.43;;;;;;;;;;5107282;28;20028;-58
2023/09/29 10:12:28;;;;;;;9.63;5.82;;;;;;;;;;5105706;28;20031;-57
2023/09/29 10:14:56;;;;;;;11.20;5.47;;;;;;;;;;5103479;28;20036;-59
2023/09/29 10:17:22;;;;;;;10.52;5.40;;;;;;;;;;5107641;28;20035;-59
2023/09/29 10:19:54;;;;;;;9.23;4.78;;;;;;;;;;5088338;28;20038;-59
2023/09/29 10:22:23;;;;;;;8.95;5.25;;;;;;;;;;5106679;28;20042;-59
2023/09/29 10:24:49;;;;;;;10.25;4.80;;;;;;;;;;5105220;28;20024;-58
2023/09/29 10:27:32;;;;;;;9.68;5.10;;;;;;;;;;5107521;28;20035;-59
2023/09/29 10:30:18;;;;;;;10.38;5.60;;;;;;;;;;5106263;28;20055;-59
2023/09/29 10:32:48;;;;;;;9.60;5.30;;;;;;;;;;5107164;28;20363;-59
2023/09/29 10:35:20;;;;;;;11.40;5.80;;;;;;;;;;5106337;28;20028;-58
2023/09/29 10:37:54;;;;;;;12.73;6.03;;;;;;;;;;5092366;28;20039;-59
2023/09/29 10:40:27;;;;;;;11.05;5.60;;;;;;;;;;5103710;28;20422;-59
2023/09/29 10:42:56;;;;;;;10.77;5.82;;;;;;;;;;5101782;28;20040;-58
2023/09/29 10:45:28;;;;;;;8.65;4.90;;;;;;;;;;5100001;28;20044;-58
2023/09/29 10:48:01;;;;;;;10.70;5.93;;;;;;;;;;5107866;28;20047;-58
2023/09/29 10:50:28;;;;;;;8.57;5.00;;;;;;;;;;5108070;28;20027;-58
2023/09/29 10:52:55;;;;;;;9.05;4.97;;;;;;;;;;5106755;28;20043;-58
2023/09/29 10:55:21;;;;;;;11.02;5.07;;;;;;;;;;5106306;28;20042;-59
2023/09/29 10:57:49;;;;;;;10.48;5.13;;;;;;;;;;5098950;28;20043;-59
2023/09/29 11:00:16;;;;;;;8.88;5.55;;;;;;;;;;5105752;27;20039;-59
2023/09/29 11:02:42;;;;;;;8.25;5.13;;;;;;;;;;5103286;28;20027;-61
2023/09/29 11:05:09;;;;;;;11.68;4.85;;;;;;;;;;5103254;27;20380;-61
2023/09/29 11:07:49;;;;;;;22.00;10.85;;;;;;;;;;5082585;28;20101;-61
2023/09/29 11:10:17;;;;;;;10.02;4.82;;;;;;;;;;5104974;28;20039;-57
2023/09/29 11:12:48;;;;;;;8.52;4.90;;;;;;;;;;5101461;27;20036;-59
2023/09/29 11:15:15;;;;;;;9.93;5.00;;;;;;;;;;5104978;28;20042;-58
2023/09/29 11:17:50;;;;;;;7.47;4.80;;;;;;;;;;5101411;28;20084;-61
2023/09/29 11:20:27;;;;;;;10.75;4.90;;;;;;;;;;5104878;27;20023;-62
2023/09/29 11:23:16;;;;;;;7.70;4.73;;;;;;;;;;5088574;27;20474;-59
2023/09/29 11:25:54;;;;;;;10.45;5.20;;;;;;;;;;5103927;28;20048;-60
2023/09/29 11:28:21;;;;;;;14.32;7.97;;;;;;;;;;5069803;27;20036;-58
2023/09/29 11:30:47;;;;;;;16.35;7.50;;;;;;;;;;5105564;28;20041;-58
2023/09/29 11:33:17;;;;;;;23.25;11.18;;;;;;;;;;5104271;28;20040;-59
2023/09/29 11:35:46;;;;;;;12.48;7.40;;;;;;;;;;5102309;28;20044;-59
2023/09/29 11:38:19;;;;;;;14.52;7.00;;;;;;;;;;5105470;28;20034;-59
2023/09/29 11:40:50;;;;;;;9.20;5.30;;;;;;;;;;5105413;28;20070;-58
2023/09/29 11:43:16;;;;;;;11.82;6.22;;;;;;;;;;5106500;28;20036;-58
2023/09/29 11:45:43;;;;;;;11.77;6.50;;;;;;;;;;5107210;28;20023;-59
2023/09/29 11:48:10;;;;;;;13.57;5.80;;;;;;;;;;5107442;28;20038;-58
2023/09/29 11:50:36;;;;;;;13.98;6.03;;;;;;;;;;5106511;28;20051;-58
2023/09/29 11:53:06;;;;;;;12.60;5.55;;;;;;;;;;5105855;28;20054;-59
2023/09/29 11:55:35;;;;;;;8.27;5.15;;;;;;;;;;5082553;28;20588;-58
2023/09/29 11:58:01;;;;;;;7.43;4.90;;;;;;;;;;5088087;28;20035;-57
2023/09/29 12:00:27;;;;;;;12.82;5.22;;;;;;;;;;5107269;28;20027;-58
2023/09/29 12:02:54;;;;;;;8.05;5.15;;;;;;;;;;5085519;28;20031;-60
2023/09/29 12:05:20;;;;;;;11.07;5.03;;;;;;;;;;5097991;28;20129;-58
2023/09/29 12:07:46;;;;;;;9.77;4.80;;;;;;;;;;5105014;28;20442;-59
2023/09/29 12:10:15;;;;;;;6.32;4.80;;;;;;;;;;5071806;28;20028;-58
2023/09/29 12:12:41;;;;;;;9.30;4.88;;;;;;;;;;5104499;28;20034;-58
2023/09/29 12:15:08;;;;;;;8.93;5.20;;;;;;;;;;5103923;28;20054;-58
2023/09/29 12:17:35;;;;;;;8.27;4.88;;;;;;;;;;5106527;28;20035;-59
2023/09/29 12:20:02;;;;;;;9.80;4.85;;;;;;;;;;5105963;28;20203;-59
2023/09/29 12:22:31;;;;;;;9.00;4.65;;;;;;;;;;5103491;28;20044;-58
2023/09/29 12:24:57;;;;;;;8.48;5.45;;;;;;;;;;5104749;28;20027;-58
2023/09/29 12:27:23;;;;;;;6.80;4.78;;;;;;;;;;5105621;28;20067;-59
2023/09/29 12:29:49;;;;;;;9.30;4.68;;;;;;;;;;5105401;28;20027;-59
2023/09/29 12:32:15;;;;;;;10.02;5.15;;;;;;;;;;5106862;28;20043;-59
2023/09/29 12:34:41;;;;;;;7.13;4.80;;;;;;;;;;5108082;28;20047;-58
2023/09/29 12:37:08;;;;;;;15.93;5.10;;;;;;;;;;5109467;28;20039;-59
2023/09/29 12:39:34;;;;;;;8.52;4.75;;;;;;;;;;5108051;28;20028;-58
2023/09/29 12:42:00;;;;;;;7.82;4.63;;;;;;;;;;5110102;28;20084;-58
2023/09/29 12:44:26;;;;;;;7.68;4.88;;;;;;;;;;5109971;28;20036;-59
2023/09/29 12:46:52;;;;;;;10.50;5.10;;;;;;;;;;5090943;28;20525;-59
2023/09/29 12:49:18;;;;;;;8.68;4.78;;;;;;;;;;5109669;28;20063;-59
2023/09/29 12:51:44;;;;;;;7.80;4.90;;;;;;;;;;5110135;28;20043;-58
2023/09/29 12:54:11;;;;;;;9.57;5.00;;;;;;;;;;5109183;28;20023;-58
2023/09/29 12:56:37;;;;;;;9.18;4.97;;;;;;;;;;5110156;28;20036;-58
2023/09/29 12:59:03;;;;;;;7.82;4.78;;;;;;;;;;5109019;28;20633;-58
2023/09/29 13:01:30;;;;;;;10.30;5.18;;;;;;;;;;5108838;28;20043;-57
2023/09/29 13:03:56;;;;;;;11.10;4.72;;;;;;;;;;5105703;28;20055;-58
2023/09/29 13:06:23;;;;;;;20.42;5.60;;;;;;;;;;5077492;28;20043;-58
2023/09/29 13:08:49;;;;;;;8.82;5.10;;;;;;;;;;5093517;28;20056;-58
2023/09/29 13:11:17;;;;;;;11.68;4.90;;;;;;;;;;5107777;28;20043;-59
2023/09/29 13:13:45;;;;;;;8.57;4.65;;;;;;;;;;5106243;28;20417;-58
2023/09/29 13:16:11;;;;;;;10.27;4.90;;;;;;;;;;5088042;28;20633;-58
2023/09/29 13:18:38;;;;;;;8.65;4.57;;;;;;;;;;5108355;28;20051;-59
2023/09/29 13:21:05;;;;;;;9.65;5.22;;;;;;;;;;5108621;28;20040;-58
2023/09/29 13:23:31;;;;;;;9.80;4.85;;;;;;;;;;5105493;28;20499;-59
2023/09/29 13:25:57;;;;;;;8.25;4.22;;;;;;;;;;5105119;28;20380;-57
2023/09/29 13:28:23;;;;;;;8.20;4.78;;;;;;;;;;5109313;28;20024;-58
2023/09/29 13:30:49;;;;;;;7.43;4.68;;;;;;;;;;5085910;28;20422;-59
2023/09/29 13:33:17;;;;;;;11.38;4.47;;;;;;;;;;5105843;28;20093;-57
2023/09/29 13:35:44;;;;;;;8.60;4.57;;;;;;;;;;5084876;28;20035;-58
2023/09/29 13:38:12;;;;;;;10.02;4.65;;;;;;;;;;5107851;28;20095;-59
2023/09/29 13:40:38;;;;;;;8.75;4.68;;;;;;;;;;5110418;28;20035;-59
2023/09/29 13:43:04;;;;;;;8.10;5.00;;;;;;;;;;5107958;28;20042;-59
2023/09/29 13:45:31;;;;;;;9.75;4.80;;;;;;;;;;5084102;28;20530;-59
2023/09/29 13:47:58;;;;;;;12.32;5.07;;;;;;;;;;5110151;28;20034;-59
2023/09/29 13:50:24;;;;;;;7.15;4.65;;;;;;;;;;5103872;28;20450;-59
2023/09/29 13:52:50;;;;;;;7.13;4.50;;;;;;;;;;5108477;28;20032;-59
2023/09/29 13:55:17;;;;;;;6.55;4.65;;;;;;;;;;5104837;28;20031;-59
2023/09/29 13:57:43;;;;;;;7.18;4.60;;;;;;;;;;5108459;28;20048;-58
2023/09/29 14:00:09;;;;;;;7.07;4.50;;;;;;;;;;5109358;28;20058;-59
2023/09/29 14:02:35;;;;;;;7.97;3.40;;;;;;;;;;5072509;28;20047;-59
2023/09/29 14:05:04;;;;;;;5.70;3.63;;;;;;;;;;5105425;28;20039;-59
2023/09/29 14:07:30;;;;;;;12.27;4.32;;;;;;;;;;5108646;28;20038;-58
2023/09/29 14:09:56;;;;;;;5.82;3.47;;;;;;;;;;5107313;28;20044;-59
2023/09/29 14:12:22;;;;;;;5.65;3.30;;;;;;;;;;5108383;28;20024;-59
2023/09/29 14:14:48;;;;;;;9.90;3.78;;;;;;;;;;5105255;28;20707;-59
2023/09/29 14:17:14;;;;;;;5.80;3.13;;;;;;;;;;5089039;28;20040;-58
2023/09/29 14:19:40;;;;;;;5.03;2.97;;;;;;;;;;5107211;28;20059;-59
2023/09/29 14:22:07;;;;;;;14.15;4.00;;;;;;;;;;5083546;28;20051;-59
2023/09/29 14:24:33;;;;;;;6.97;3.10;;;;;;;;;;5102974;28;20052;-58
2023/09/29 14:26:59;;;;;;;5.05;2.92;;;;;;;;;;5087812;28;20051;-59
2023/09/29 14:29:25;;;;;;;4.55;3.75;;;;;;;;;;5085064;28;20058;-59
2023/09/29 14:31:52;;;;;;;6.35;3.38;;;;;;;;;;5105745;28;20510;-58
2023/09/29 14:34:18;;;;;;;5.97;3.35;;;;;;;;;;5105224;28;20032;-58
2023/09/29 14:36:44;;;;;;;8.18;3.63;;;;;;;;;;5106726;28;20441;-59
2023/09/29 14:39:10;;;;;;;5.65;3.53;;;;;;;;;;5107845;28;20039;-59